createdAt,value
2022-10-11T00:05:17.922Z,84.19
2022-10-11T00:15:23.260Z,84.09
2022-10-11T00:25:27.026Z,84.23
2022-10-11T00:35:30.604Z,83.84
2022-10-11T00:45:34.671Z,83.80
2022-10-11T00:55:49.494Z,84.09
2022-10-11T01:05:53.671Z,83.89
2022-10-11T01:16:23.740Z,83.87
2022-10-11T01:26:30.475Z,84.32
2022-10-11T01:36:37.927Z,84.42
2022-10-11T01:46:41.891Z,84.17
2022-10-11T01:57:04.399Z,83.87
2022-10-11T02:07:11.573Z,83.17
2022-10-11T02:17:21.264Z,82.65
2022-10-11T02:27:30.848Z,82.12
2022-10-11T02:37:53.650Z,82.09
2022-10-11T02:48:01.058Z,81.92
2022-10-11T02:58:05.202Z,82.24
2022-10-11T03:08:10.629Z,82.40
2022-10-11T03:18:14.350Z,82.06
2022-10-11T03:28:18.072Z,82.46
2022-10-11T03:38:23.012Z,82.53
2022-10-11T03:48:27.193Z,82.41
2022-10-11T03:58:31.066Z,83.05
2022-10-11T04:08:34.627Z,84.04
2022-10-11T04:18:38.499Z,83.98
2022-10-11T04:28:42.327Z,84.42
2022-10-11T04:38:45.931Z,84.04
2022-10-11T04:48:49.692Z,84.42
2022-10-11T04:58:55.091Z,84.58
2022-10-11T05:08:58.869Z,84.88
2022-10-11T05:19:02.506Z,85.05
2022-10-11T05:29:06.195Z,84.82
2022-10-11T05:39:10.062Z,84.81
2022-10-11T05:49:13.628Z,84.46
2022-10-11T05:59:17.803Z,83.83
2022-10-11T06:09:21.489Z,83.65
2022-10-11T06:19:25.339Z,84.21
2022-10-11T06:29:29.232Z,84.58
2022-10-11T06:39:32.881Z,84.22
2022-10-11T06:49:36.674Z,83.62
2022-10-11T06:59:40.638Z,83.61
2022-10-11T07:09:44.594Z,82.95
2022-10-11T07:19:48.386Z,82.60
2022-10-11T07:29:52.451Z,83.37
2022-10-11T07:39:56.304Z,83.18
2022-10-11T07:50:00.275Z,83.00
2022-10-11T08:00:05.380Z,81.77
2022-10-11T08:10:15.719Z,80.79
2022-10-11T08:20:19.670Z,79.96
2022-10-11T08:30:23.740Z,79.01
2022-10-11T08:40:30.436Z,78.39
2022-10-11T08:50:38.836Z,78.03
2022-10-11T09:00:46.818Z,77.18
2022-10-11T09:11:10.432Z,76.82
2022-10-11T09:21:52.874Z,75.64
2022-10-11T09:31:58.808Z,75.04
2022-10-11T09:42:10.820Z,74.55
2022-10-11T09:52:20.456Z,74.82
2022-10-11T10:02:25.552Z,74.49
2022-10-11T10:12:30.957Z,73.61
2022-10-11T10:22:36.344Z,74.08
2022-10-11T10:32:56.092Z,74.33
2022-10-11T10:43:00.080Z,74.22
2022-10-11T10:53:26.675Z,73.52
2022-10-11T11:03:55.668Z,72.58
2022-10-11T11:14:22.510Z,71.17
2022-10-11T11:24:38.131Z,68.91
2022-10-11T11:35:23.742Z,67.78
2022-10-11T11:45:51.442Z,67.34
2022-10-11T11:56:09.085Z,66.62
2022-10-11T12:06:12.606Z,66.38
2022-10-11T12:16:17.931Z,66.96
2022-10-11T12:26:37.157Z,66.03
2022-10-11T12:36:44.171Z,65.67
2022-10-11T12:46:51.008Z,65.37
2022-10-11T12:57:34.286Z,65.76
2022-10-11T13:07:41.735Z,65.51
2022-10-11T13:17:45.912Z,66.14
2022-10-11T13:27:51.776Z,65.51
2022-10-11T13:37:55.853Z,64.58
2022-10-11T13:47:59.781Z,63.67
2022-10-11T13:58:16.245Z,64.95
2022-10-11T14:08:31.166Z,65.16
2022-10-11T14:18:48.648Z,65.82
2022-10-11T14:28:57.547Z,66.49
2022-10-11T14:39:02.515Z,67.21
2022-10-11T14:49:23.682Z,67.95
2022-10-11T14:59:32.979Z,68.55
2022-10-11T15:09:36.950Z,68.89
2022-10-11T15:19:40.932Z,69.13
2022-10-11T15:29:44.980Z,68.88
2022-10-11T15:39:49.801Z,69.83
2022-10-11T15:49:54.076Z,70.34
2022-10-11T15:59:58.131Z,70.44
2022-10-11T16:10:02.625Z,71.30
2022-10-11T16:20:08.027Z,71.82
2022-10-11T16:30:13.501Z,72.17
2022-10-11T16:40:20.682Z,73.20
2022-10-11T16:50:24.752Z,74.46
2022-10-11T17:00:28.719Z,75.56
2022-10-11T17:10:39.753Z,75.93
2022-10-11T17:20:43.929Z,76.05
2022-10-11T17:30:58.348Z,75.93
2022-10-11T17:41:05.741Z,75.94
2022-10-11T17:51:19.231Z,76.32
2022-10-11T18:01:25.962Z,76.44
2022-10-11T18:11:31.123Z,76.83
2022-10-11T18:21:36.197Z,77.59
2022-10-11T18:31:41.444Z,77.91
2022-10-11T18:41:45.444Z,78.27
2022-10-11T18:51:50.390Z,78.12
2022-10-11T19:01:55.248Z,78.39
2022-10-11T19:11:59.677Z,78.22
2022-10-11T19:22:06.840Z,78.42
2022-10-11T19:32:10.885Z,79.06
2022-10-11T19:42:15.899Z,79.78
2022-10-11T19:52:20.470Z,79.50
2022-10-11T20:02:24.637Z,79.69
2022-10-11T20:12:29.579Z,80.35
2022-10-11T20:22:34.169Z,80.70
2022-10-11T20:32:38.165Z,80.96
2022-10-11T20:42:42.209Z,80.59
2022-10-11T20:52:46.250Z,80.47
2022-10-11T21:02:53.115Z,80.42
2022-10-11T21:12:57.173Z,80.40
2022-10-11T21:23:01.128Z,79.87
2022-10-11T21:33:05.401Z,79.14
2022-10-11T21:43:09.071Z,78.87
2022-10-11T21:53:12.641Z,79.41
2022-10-11T22:03:16.307Z,80.79
2022-10-11T22:13:20.382Z,80.77
2022-10-11T22:23:23.836Z,81.49
2022-10-11T22:33:28.060Z,81.14
2022-10-11T22:43:31.891Z,80.86
2022-10-11T22:53:35.967Z,80.24
2022-10-11T23:03:39.614Z,80.94
2022-10-11T23:13:43.844Z,81.24
2022-10-11T23:23:48.396Z,81.98
2022-10-11T23:33:53.925Z,82.03
2022-10-11T23:43:58.697Z,82.10
2022-10-11T23:54:02.297Z,81.22
